Airfield :
LOGIN :

Register | Disclaimer

   EN    FR    IT 

 










Legend :    VFR   Marginal VFR   IFR   Intensive IFR   Very Intensive IFR
Visi :
Ceiling :
>= 8 km
>= 3000ft
5 to 8 km
1000 to 3000 ft
1500m to 5 km
500 to 1000 ft
800 to 1500m
200 to 500 ft
< 800m
< 200 ft
Symbols :   Thunderstorms  Fog  Heavy snow  Heavy precipitations  Wind > 20 kt
SIGMETs :     Misc.  Thunderstorms  Icing  Turbulence  Mountain Waves  Volcanic Ashes






- Airport Elevation : 37 ft


EGOW - Woodvale

EXPIRED METARs :
  • 071250Z 27012G23KT 9999 VCSH FEW020TCU 14/11 Q1012 RMK BLU

TAF TAF EGOW
Valid from the 07 at 12:00 until the 07 at 18:00 UTC


071030Z 0712/0718 26013KT 9999 SCT025
TEMPO 0712/0713 5000 RA BKN020
TEMPO 0713/0718 27016G26KT 6000 SHRA SCT020
PROB30
TEMPO 0714/0718 4000 +SHRA BKN014CB



MET'MAP, your aeronautical weather chart ! - Copyright ORBIFLY December 2007 - Disclaimer

ORBIFLY MET'MAP TEAM :

Programming & Development : Alexandra Zaïnal
Original concept : Baudouin d'Aumeries
Technical & hardware support : Manuel Goepfert
Assistance : Marc-Olivier Méhu




SOURCES & CREDITS :

   NOAA